Time;durP1;ratioP1;P1;durP2;ratioP2;P2;SDS_P1;SDS_P2;PMS_P1;PMS_P2;Temp;Humidity;BMP_temperature;BMP_pressure;BME280_temperature;BME280_humidity;BME280_pressure;Samples;Min_cycle;Max_cycle;Signal;HPM_P1;HPM_P2
2023/12/31 00:01:02;;;;;;;4.20;1.70;;;;;;;-4.00;100.00;141305.28;107020;1266;25437;-65
2023/12/31 00:03:47;;;;;;;3.70;2.00;;;;;;;-3.99;100.00;141308.73;107141;1266;25346;-64
2023/12/31 00:06:33;;;;;;;5.00;1.80;;;;;;;-3.96;100.00;141316.17;107059;1265;25394;-64
2023/12/31 00:09:19;;;;;;;3.30;1.70;;;;;;;-3.93;100.00;141322.13;106999;1267;25507;-64
2023/12/31 00:12:04;;;;;;;3.90;1.80;;;;;;;-3.97;100.00;141313.22;106992;1270;25398;-65
2023/12/31 00:14:50;;;;;;;3.70;1.80;;;;;;;-4.05;100.00;141291.91;107073;1266;25398;-66
2023/12/31 00:17:36;;;;;;;3.70;1.80;;;;;;;-4.12;100.00;141275.30;107030;1273;25367;-65
2023/12/31 00:20:22;;;;;;;5.10;2.20;;;;;;;-4.17;100.00;141263.42;107061;1269;25477;-64
2023/12/31 00:23:11;;;;;;;4.20;2.20;;;;;;;-4.19;100.00;141258.97;106991;1264;25414;-65
2023/12/31 00:25:57;;;;;;;7.70;2.40;;;;;;;-4.20;100.00;141256.50;107084;1266;25331;-65
2023/12/31 00:28:43;;;;;;;5.50;2.10;;;;;;;-4.18;100.00;141261.94;107087;1271;25513;-66
2023/12/31 00:31:28;;;;;;;5.70;2.30;;;;;;;-4.14;100.00;141271.86;107115;1264;24359;-67
2023/12/31 00:34:16;;;;;;;4.10;1.90;;;;;;;-4.09;100.00;141281.75;106967;1265;25478;-64
2023/12/31 00:37:03;;;;;;;5.70;2.90;;;;;;;-4.06;100.00;141289.92;106999;1261;25430;-63
2023/12/31 00:39:49;;;;;;;4.30;1.80;;;;;;;-4.01;100.00;141301.80;106965;1270;25333;-66
2023/12/31 00:42:35;;;;;;;5.00;2.10;;;;;;;-3.98;100.00;141310.47;106971;1263;25487;-67
2023/12/31 00:45:21;;;;;;;3.80;1.90;;;;;;;-3.94;100.00;141319.39;107026;1266;25481;-65
2023/12/31 00:48:07;;;;;;;3.60;1.80;;;;;;;-3.92;100.00;141324.08;106976;1264;25526;-66
2023/12/31 00:50:53;;;;;;;5.60;2.30;;;;;;;-3.92;100.00;141324.59;107101;1272;25408;-62
2023/12/31 00:53:39;;;;;;;5.70;2.50;;;;;;;-3.93;100.00;141321.38;106996;1273;25366;-64
2023/12/31 00:56:25;;;;;;;5.00;2.20;;;;;;;-3.96;100.00;141314.20;107048;1264;25526;-66
2023/12/31 00:59:11;;;;;;;6.10;2.10;;;;;;;-4.00;100.00;141305.78;106967;1270;25434;-67
2023/12/31 01:01:56;;;;;;;6.90;2.40;;;;;;;-4.04;100.00;141296.11;106970;1271;25372;-65
2023/12/31 01:04:42;;;;;;;6.90;2.80;;;;;;;-4.04;100.00;141295.63;107046;1267;25366;-66
2023/12/31 01:07:28;;;;;;;4.30;2.10;;;;;;;-4.04;100.00;141294.38;107039;1271;25404;-64
2023/12/31 01:10:14;;;;;;;6.90;2.30;;;;;;;-4.08;100.00;141285.22;107010;1267;25350;-64
2023/12/31 01:13:02;;;;;;;5.50;2.80;;;;;;;-4.09;100.00;141282.48;107163;1270;25325;-65
2023/12/31 01:15:48;;;;;;;6.90;2.90;;;;;;;-4.13;100.00;141272.34;107327;1264;25328;-64
2023/12/31 01:18:34;;;;;;;6.70;3.20;;;;;;;-4.21;100.00;141254.77;107000;1269;25337;-64
2023/12/31 01:21:20;;;;;;;8.10;2.90;;;;;;;-4.33;100.00;141225.28;107065;1266;25515;-63
2023/12/31 01:24:06;;;;;;;6.50;2.80;;;;;;;-4.39;100.00;141212.16;106979;1273;25519;-63
2023/12/31 01:26:51;;;;;;;5.20;2.50;;;;;;;-4.39;100.00;141211.67;107020;1264;25369;-63
2023/12/31 01:29:38;;;;;;;4.90;2.60;;;;;;;-4.37;100.00;141215.88;106996;1272;25380;-66
2023/12/31 01:32:23;;;;;;;5.80;2.60;;;;;;;-4.37;100.00;141216.88;107003;1267;25427;-66
2023/12/31 01:35:09;;;;;;;3.90;2.00;;;;;;;-4.36;100.00;141219.11;107189;1264;23996;-62
2023/12/31 01:37:55;;;;;;;6.20;3.00;;;;;;;-4.35;100.00;141221.83;106955;1270;25349;-63
2023/12/31 01:40:51;;;;;;;5.40;2.80;;;;;;;-4.36;100.00;141219.13;107195;1267;25356;-63
2023/12/31 01:43:37;;;;;;;5.10;2.30;;;;;;;-4.36;100.00;141217.88;107254;1264;25386;-63
2023/12/31 01:46:30;;;;;;;6.00;2.90;;;;;;;-4.34;100.00;141222.08;107169;1263;25439;-65
2023/12/31 01:49:16;;;;;;;5.20;2.50;;;;;;;-4.29;100.00;141233.95;107662;1264;25421;-62
2023/12/31 01:52:03;;;;;;;5.60;2.40;;;;;;;-4.25;100.00;141244.59;107604;1263;25411;-64
2023/12/31 01:54:48;;;;;;;6.20;3.00;;;;;;;-4.22;100.00;141251.05;107571;1264;25948;-62
2023/12/31 01:57:37;;;;;;;4.90;2.50;;;;;;;-4.20;100.00;141258.47;107118;1267;25504;-69
2023/12/31 02:00:23;;;;;;;7.50;3.10;;;;;;;-4.18;100.00;141262.92;107260;1267;25350;-65
2023/12/31 02:03:10;;;;;;;6.80;2.80;;;;;;;-4.20;100.00;141258.20;107074;1266;25366;-62
2023/12/31 02:05:56;;;;;;;6.90;2.80;;;;;;;-4.33;100.00;141225.30;107052;1264;25399;-64
2023/12/31 02:08:42;;;;;;;6.30;2.70;;;;;;;-4.52;100.00;141178.98;107097;1261;25376;-63
2023/12/31 02:11:27;;;;;;;5.70;3.00;;;;;;;-4.68;100.00;141141.13;107044;1264;25405;-63
2023/12/31 02:14:13;;;;;;;7.00;2.90;;;;;;;-4.76;100.00;141121.33;107019;1267;25472;-63
2023/12/31 02:16:58;;;;;;;7.30;3.10;;;;;;;-4.81;100.00;141109.94;107061;1268;25357;-66
2023/12/31 02:19:44;;;;;;;6.40;3.00;;;;;;;-4.86;100.00;141098.30;106997;1261;25325;-63
2023/12/31 02:22:30;;;;;;;6.80;2.90;;;;;;;-4.91;100.00;141084.20;107141;1263;23699;-63
2023/12/31 02:25:22;;;;;;;7.60;3.50;;;;;;;-4.95;100.00;141074.30;107134;1264;25359;-64
2023/12/31 02:28:08;;;;;;;9.40;3.20;;;;;;;-5.03;100.00;141057.00;107032;1265;25421;-62
2023/12/31 02:30:54;;;;;;;7.20;2.60;;;;;;;-5.08;100.00;141043.88;107018;1261;25477;-62
2023/12/31 02:33:40;;;;;;;6.90;3.10;;;;;;;-5.15;100.00;141027.53;107095;1264;26117;-65
2023/12/31 02:36:25;;;;;;;7.20;2.90;;;;;;;-5.21;100.00;141012.67;107074;1270;26734;-64
2023/12/31 02:39:11;;;;;;;7.50;3.30;;;;;;;-5.24;100.00;141004.80;107078;1264;25415;-62
2023/12/31 02:41:57;;;;;;;8.30;3.30;;;;;;;-5.26;100.00;141000.83;106995;1263;25369;-65
2023/12/31 02:44:43;;;;;;;9.90;3.20;;;;;;;-5.28;100.00;140996.86;107039;1261;25439;-66
2023/12/31 02:47:29;;;;;;;7.80;3.70;;;;;;;-5.29;100.00;140992.66;107072;1273;25331;-63
2023/12/31 02:50:14;;;;;;;7.40;3.60;;;;;;;-5.34;100.00;140979.80;106998;1267;25344;-63
2023/12/31 02:53:01;;;;;;;11.50;4.00;;;;;;;-5.40;100.00;140966.67;107013;1264;25328;-65
2023/12/31 02:55:47;;;;;;;8.00;3.70;;;;;;;-5.46;100.00;140952.83;107024;1260;25405;-66
2023/12/31 02:58:33;;;;;;;8.20;4.10;;;;;;;-5.52;100.00;140939.22;107022;1264;25468;-64
2023/12/31 03:01:19;;;;;;;9.80;3.90;;;;;;;-5.55;100.00;140931.80;107001;1258;23342;-60
2023/12/31 03:04:06;;;;;;;11.80;5.50;;;;;;;-5.57;100.00;140925.88;107208;1267;25405;-65
2023/12/31 03:06:52;;;;;;;14.50;6.50;;;;;;;-5.59;100.00;140919.70;107099;1264;26101;-65
2023/12/31 03:09:39;;;;;;;13.20;6.70;;;;;;;-5.62;100.00;140912.77;107113;1260;23808;-66
2023/12/31 03:12:24;;;;;;;14.10;6.70;;;;;;;-5.67;100.00;140901.64;107031;1259;25331;-63
2023/12/31 03:15:10;;;;;;;14.60;6.60;;;;;;;-5.71;100.00;140891.50;106980;1274;25359;-64
2023/12/31 03:17:56;;;;;;;15.80;7.30;;;;;;;-5.76;100.00;140878.66;107009;1263;25647;-65
2023/12/31 03:20:41;;;;;;;16.10;8.10;;;;;;;-5.83;100.00;140862.81;107056;1260;25353;-64
2023/12/31 03:23:27;;;;;;;12.90;6.20;;;;;;;-5.89;100.00;140848.25;107104;1264;25340;-63
2023/12/31 03:26:13;;;;;;;16.20;8.00;;;;;;;-5.92;100.00;140842.30;107423;1268;25859;-63
2023/12/31 03:28:59;;;;;;;14.80;8.00;;;;;;;-5.93;100.00;140840.09;107276;1263;25436;-66
2023/12/31 03:31:44;;;;;;;12.90;7.50;;;;;;;-5.96;100.00;140830.97;107045;1261;25586;-66
2023/12/31 03:34:30;;;;;;;14.90;7.40;;;;;;;-6.02;100.00;140817.13;107129;1264;25526;-65
2023/12/31 03:37:16;;;;;;;13.70;6.80;;;;;;;-6.08;100.00;140802.30;107154;1270;25910;-64
2023/12/31 03:40:03;;;;;;;11.60;5.90;;;;;;;-6.15;100.00;140785.23;107122;1261;25341;-64
2023/12/31 03:42:49;;;;;;;8.30;4.50;;;;;;;-6.21;100.00;140770.66;107169;1264;25350;-62
2023/12/31 03:45:35;;;;;;;7.90;4.00;;;;;;;-6.25;100.00;140760.03;107009;1273;25408;-62
2023/12/31 03:48:20;;;;;;;8.50;4.40;;;;;;;-6.26;100.00;140758.30;107038;1264;25491;-66
2023/12/31 03:51:09;;;;;;;9.30;4.80;;;;;;;-6.25;100.00;140760.05;107013;1263;24182;-66
2023/12/31 03:53:55;;;;;;;9.70;4.60;;;;;;;-6.22;100.00;140767.42;107075;1264;25350;-64
2023/12/31 03:56:41;;;;;;;8.40;4.40;;;;;;;-6.18;100.00;140778.31;107044;1264;25366;-61
2023/12/31 03:59:27;;;;;;;8.00;4.10;;;;;;;-6.13;100.00;140791.91;107047;1263;25518;-63
2023/12/31 04:02:13;;;;;;;8.40;4.30;;;;;;;-6.07;100.00;140806.02;107003;1263;25529;-66
2023/12/31 04:04:58;;;;;;;12.10;4.80;;;;;;;-6.02;100.00;140816.89;107056;1267;25354;-64
2023/12/31 04:07:44;;;;;;;12.30;4.20;;;;;;;-6.01;100.00;140819.09;107051;1263;25376;-65
2023/12/31 04:10:30;;;;;;;10.30;4.20;;;;;;;-5.98;100.00;140825.53;106993;1263;25481;-63
2023/12/31 04:13:19;;;;;;;9.80;4.30;;;;;;;-5.96;100.00;140830.72;107000;1267;25411;-64
2023/12/31 04:16:08;;;;;;;9.00;4.40;;;;;;;-5.96;100.00;140832.70;107075;1260;25328;-63
2023/12/31 04:18:53;;;;;;;10.00;4.20;;;;;;;-5.96;100.00;140832.22;107015;1264;25346;-66
2023/12/31 04:21:40;;;;;;;8.60;4.00;;;;;;;-6.00;100.00;140823.05;107028;1264;25362;-63
2023/12/31 04:24:25;;;;;;;7.20;3.70;;;;;;;-6.02;100.00;140815.66;107140;1260;25423;-62
2023/12/31 04:27:11;;;;;;;12.10;4.10;;;;;;;-6.04;100.00;140811.95;107190;1272;25322;-61
2023/12/31 04:29:57;;;;;;;11.40;4.60;;;;;;;-6.05;100.00;140808.72;107028;1263;25406;-66
2023/12/31 04:32:42;;;;;;;8.40;3.50;;;;;;;-6.06;100.00;140808.22;107049;1264;25455;-65
2023/12/31 04:35:28;;;;;;;9.10;4.60;;;;;;;-6.05;100.00;140809.22;107011;1263;25368;-63
2023/12/31 04:38:14;;;;;;;8.80;4.70;;;;;;;-6.08;100.00;140802.80;106992;1263;25379;-65
2023/12/31 04:40:59;;;;;;;9.70;4.30;;;;;;;-6.13;100.00;140791.16;106990;1263;25481;-64
2023/12/31 04:43:45;;;;;;;7.00;3.80;;;;;;;-6.18;100.00;140779.05;107054;1267;25417;-63
2023/12/31 04:46:31;;;;;;;9.90;4.30;;;;;;;-6.20;100.00;140772.66;107056;1263;25411;-64
2023/12/31 04:49:17;;;;;;;12.70;4.80;;;;;;;-6.20;100.00;140774.13;107102;1261;25322;-66
2023/12/31 04:52:03;;;;;;;8.20;4.50;;;;;;;-6.20;100.00;140774.13;107108;1263;25385;-64
2023/12/31 04:54:51;;;;;;;12.10;3.90;;;;;;;-6.21;100.00;140771.16;107120;1264;25389;-64
2023/12/31 04:57:36;;;;;;;8.70;4.70;;;;;;;-6.23;100.00;140766.95;107081;1264;25351;-63
2023/12/31 05:00:22;;;;;;;10.80;4.50;;;;;;;-6.26;100.00;140759.05;107110;1264;25331;-64
2023/12/31 05:03:08;;;;;;;9.20;4.50;;;;;;;-6.31;100.00;140746.69;107147;1262;25501;-63
2023/12/31 05:05:54;;;;;;;9.70;4.80;;;;;;;-6.32;100.00;140744.95;107079;1261;25794;-64
2023/12/31 05:08:43;;;;;;;9.80;4.50;;;;;;;-6.30;100.00;140748.91;107081;1260;25365;-65
2023/12/31 05:11:28;;;;;;;9.70;4.20;;;;;;;-6.30;100.00;140749.66;107073;1264;25347;-64
2023/12/31 05:14:14;;;;;;;8.60;4.40;;;;;;;-6.30;100.00;140748.17;107032;1269;25359;-65
2023/12/31 05:17:00;;;;;;;9.90;6.00;;;;;;;-6.30;100.00;140747.42;107259;1263;25403;-65
2023/12/31 05:19:47;;;;;;;11.00;4.80;;;;;;;-6.29;100.00;140750.63;107280;1264;25422;-63
2023/12/31 05:22:33;;;;;;;8.80;4.20;;;;;;;-6.27;100.00;140754.84;107016;1262;25403;-65
2023/12/31 05:25:19;;;;;;;10.60;4.60;;;;;;;-6.22;100.00;140767.20;107062;1263;25481;-66
2023/12/31 05:28:05;;;;;;;11.60;4.60;;;;;;;-6.15;100.00;140785.72;107050;1264;25456;-63
2023/12/31 05:30:51;;;;;;;10.30;4.50;;;;;;;-6.06;100.00;140806.73;106965;1273;110118;-66
2023/12/31 05:33:36;;;;;;;10.50;4.90;;;;;;;-6.00;100.00;140821.34;107051;1260;25350;-66
2023/12/31 05:36:22;;;;;;;10.40;4.70;;;;;;;-5.96;100.00;140830.97;107101;1263;25359;-66
2023/12/31 05:39:08;;;;;;;11.50;5.00;;;;;;;-5.95;100.00;140833.20;107043;1260;23997;-67
2023/12/31 05:41:55;;;;;;;8.60;4.70;;;;;;;-5.96;100.00;140832.20;107021;1264;25490;-66
2023/12/31 05:44:40;;;;;;;17.20;4.90;;;;;;;-5.93;100.00;140839.84;107087;1263;25506;-65
2023/12/31 05:47:26;;;;;;;10.10;4.60;;;;;;;-5.87;100.00;140853.92;107129;1261;25341;-63
2023/12/31 05:50:32;;;;;;;10.10;4.70;;;;;;;-5.76;100.00;140879.63;107051;1260;25490;-62
2023/12/31 05:53:17;;;;;;;9.40;4.30;;;;;;;-5.67;100.00;140902.61;107035;1263;25408;-66
2023/12/31 05:56:04;;;;;;;11.00;4.80;;;;;;;-5.61;100.00;140917.22;107303;1263;25366;-64
2023/12/31 05:58:49;;;;;;;10.80;5.30;;;;;;;-5.59;100.00;140920.69;107163;1270;25459;-63
2023/12/31 06:01:35;;;;;;;11.40;5.20;;;;;;;-5.61;100.00;140916.22;107042;1263;25425;-66
2023/12/31 06:04:21;;;;;;;9.00;4.90;;;;;;;-5.65;100.00;140905.59;107063;1260;25365;-64
2023/12/31 06:07:06;;;;;;;11.20;5.40;;;;;;;-5.66;100.00;140904.11;107029;1264;25408;-67
2023/12/31 06:09:52;;;;;;;11.50;5.60;;;;;;;-5.54;100.00;140934.28;107051;1260;25408;-64
2023/12/31 06:12:37;;;;;;;11.80;6.50;;;;;;;-5.25;100.00;141003.55;107035;1264;25453;-67
2023/12/31 06:15:23;;;;;;;11.70;6.40;;;;;;;-4.93;100.00;141079.50;107051;1266;25368;-65
2023/12/31 06:18:09;;;;;;;12.60;6.20;;;;;;;-4.95;100.00;141076.03;107075;1263;25406;-67
2023/12/31 06:20:55;;;;;;;12.70;6.30;;;;;;;-5.08;100.00;141044.36;107065;1261;25341;-65
2023/12/31 06:23:41;;;;;;;12.70;6.90;;;;;;;-5.21;100.00;141011.97;107073;1263;25347;-65
2023/12/31 06:26:26;;;;;;;16.10;6.60;;;;;;;-5.31;100.00;140988.20;107150;1260;25433;-66
2023/12/31 06:29:12;;;;;;;12.30;6.60;;;;;;;-5.35;100.00;140979.78;107051;1261;25424;-65
2023/12/31 06:31:57;;;;;;;14.00;6.90;;;;;;;-5.32;100.00;140986.22;107055;1260;25356;-63
2023/12/31 06:34:43;;;;;;;15.20;7.00;;;;;;;-5.15;100.00;141027.03;107048;1269;25375;-65
2023/12/31 06:37:29;;;;;;;13.70;6.90;;;;;;;-4.90;100.00;141087.17;107039;1263;25334;-66
2023/12/31 06:40:14;;;;;;;12.60;6.30;;;;;;;-4.86;100.00;141097.56;107080;1270;25447;-63
2023/12/31 06:43:00;;;;;;;15.50;7.60;;;;;;;-4.37;100.00;141214.64;107004;1263;25389;-66
2023/12/31 06:45:46;;;;;;;16.80;6.90;;;;;;;-3.32;100.00;141470.28;107071;1260;25370;-65
2023/12/31 06:48:32;;;;;;;10.40;5.40;;;;;;;-2.97;100.00;141554.30;107010;1264;25331;-64
2023/12/31 06:51:17;;;;;;;13.80;6.00;;;;;;;-3.05;100.00;141535.20;107066;1263;25382;-66
2023/12/31 06:54:03;;;;;;;11.00;5.40;;;;;;;-3.05;100.00;141535.22;107099;1261;25341;-64
2023/12/31 06:56:48;;;;;;;15.70;6.30;;;;;;;-2.87;100.00;141579.84;107181;1260;25392;-64
2023/12/31 06:59:34;;;;;;;13.50;6.30;;;;;;;-1.68;100.00;141867.13;107082;1264;25486;-64
2023/12/31 07:02:20;;;;;;;17.60;8.30;;;;;;;-0.90;100.00;142056.33;107050;1263;25388;-67
2023/12/31 07:05:08;;;;;;;17.40;7.90;;;;;;;-1.10;100.00;142008.41;107017;1263;25359;-68
2023/12/31 07:07:54;;;;;;;25.00;10.90;;;;;;;-1.79;100.00;141839.58;107030;1263;25491;-67
2023/12/31 07:10:39;;;;;;;13.90;5.80;;;;;;;-2.25;100.00;141728.91;107041;1257;25412;-67
2023/12/31 07:13:25;;;;;;;12.50;6.30;;;;;;;-2.71;100.00;141618.28;107058;1263;25398;-66
2023/12/31 07:16:11;;;;;;;12.70;5.90;;;;;;;-2.27;100.00;141724.42;107099;1264;24200;-67
2023/12/31 07:18:57;;;;;;;10.20;4.80;;;;;;;-0.77;100.00;142088.63;107014;1260;25478;-65
2023/12/31 07:21:44;;;;;;;11.70;5.10;;;;;;;-0.60;99.88;142129.59;107181;1264;25450;-65
2023/12/31 07:24:32;;;;;;;13.90;4.90;;;;;;;-1.07;99.99;142014.84;107455;1263;25446;-66
2023/12/31 07:27:17;;;;;;;9.80;4.50;;;;;;;-1.03;100.00;142025.78;107113;1264;22537;-64
2023/12/31 07:30:04;;;;;;;8.50;4.30;;;;;;;-0.05;99.08;142263.33;107122;1263;25408;-64
2023/12/31 07:32:50;;;;;;;9.50;4.00;;;;;;;1.50;93.55;142639.94;107049;1263;25363;-67
2023/12/31 07:35:36;;;;;;;8.20;4.00;;;;;;;2.33;85.44;142842.61;107145;1264;25430;-64
2023/12/31 07:38:22;;;;;;;14.00;4.20;;;;;;;2.17;84.03;142802.77;107450;1260;25416;-65
2023/12/31 07:41:11;;;;;;;11.20;4.60;;;;;;;1.32;84.14;142595.11;107405;1262;24132;-68
2023/12/31 07:43:57;;;;;;;7.90;3.50;;;;;;;0.42;86.83;142378.17;107381;1266;25423;-66
2023/12/31 07:46:43;;;;;;;10.40;4.40;;;;;;;-0.15;89.47;142238.22;107222;1260;25356;-65
2023/12/31 07:49:30;;;;;;;10.10;3.70;;;;;;;-0.64;91.60;142118.67;106975;1263;24379;-63
2023/12/31 07:52:15;;;;;;;9.50;3.90;;;;;;;-1.02;93.77;142027.25;106938;1263;25804;-65
2023/12/31 07:55:03;;;;;;;8.60;3.90;;;;;;;-1.25;95.46;141971.14;107097;1263;25417;-60
2023/12/31 07:57:49;;;;;;;10.00;4.40;;;;;;;-1.44;96.80;141924.97;107004;1263;25359;-63
2023/12/31 08:00:35;;;;;;;10.90;4.30;;;;;;;-1.66;97.93;141872.34;107056;1263;25353;-63
2023/12/31 08:03:21;;;;;;;8.70;4.10;;;;;;;-1.85;99.26;141826.66;107068;1263;25436;-59
2023/12/31 08:06:07;;;;;;;9.00;4.40;;;;;;;-1.95;99.99;141802.09;107035;1263;25341;-63
2023/12/31 08:08:53;;;;;;;14.10;4.30;;;;;;;-1.82;100.00;141832.36;107042;1263;25391;-64
2023/12/31 08:11:39;;;;;;;8.10;3.80;;;;;;;-1.58;100.00;141890.97;107031;1260;25423;-63
2023/12/31 08:14:24;;;;;;;10.40;3.60;;;;;;;-1.23;99.53;141976.59;107135;1263;25446;-63
2023/12/31 08:17:10;;;;;;;11.10;4.30;;;;;;;-0.87;97.56;142064.02;107206;1263;25449;-62
2023/12/31 08:19:56;;;;;;;9.10;4.10;;;;;;;-0.76;95.89;142091.09;107111;1258;25414;-64
2023/12/31 08:22:42;;;;;;;8.60;4.40;;;;;;;-0.92;95.49;142051.84;107030;1261;25359;-65
2023/12/31 08:25:28;;;;;;;12.80;4.60;;;;;;;-1.04;95.34;142021.53;106999;1264;25399;-64
2023/12/31 08:28:14;;;;;;;10.00;4.20;;;;;;;-1.03;95.46;142025.52;107029;1263;25417;-75
2023/12/31 08:31:00;;;;;;;9.10;4.50;;;;;;;-1.15;95.41;141996.22;107208;1261;25369;-70
2023/12/31 08:33:45;;;;;;;8.10;4.00;;;;;;;-1.35;96.11;141947.30;107290;1263;25338;-65
2023/12/31 08:36:32;;;;;;;12.20;4.20;;;;;;;-1.53;96.99;141904.09;107174;1263;25558;-64
2023/12/31 08:39:17;;;;;;;12.10;4.30;;;;;;;-1.90;97.40;141813.50;107263;1263;25513;-65
2023/12/31 08:42:03;;;;;;;8.40;4.20;;;;;;;-2.23;99.07;141732.86;107054;1263;25417;-64
2023/12/31 08:44:49;;;;;;;9.70;4.20;;;;;;;-2.46;100.00;141678.55;107042;1263;25363;-64
2023/12/31 08:47:52;;;;;;;8.90;3.40;;;;;;;-2.22;100.00;141735.84;107048;1264;25496;-63
2023/12/31 08:50:38;;;;;;;12.00;4.30;;;;;;;-2.08;100.00;141770.33;107000;1263;25471;-61
2023/12/31 08:53:24;;;;;;;11.40;3.80;;;;;;;-1.78;98.67;141844.03;107413;1266;25478;-65
2023/12/31 08:56:10;;;;;;;7.90;3.40;;;;;;;-1.83;97.41;141830.89;107027;1263;25401;-64
2023/12/31 08:58:56;;;;;;;8.20;3.30;;;;;;;-2.02;97.05;141786.20;107041;1263;25379;-62
2023/12/31 09:01:41;;;;;;;8.70;3.60;;;;;;;-2.17;97.69;141747.50;107060;1263;25340;-63
2023/12/31 09:04:33;;;;;;;9.10;3.90;;;;;;;-2.26;98.22;141726.17;106960;1263;25490;-64
2023/12/31 09:07:19;;;;;;;10.50;4.60;;;;;;;-2.25;98.43;141727.66;107047;1273;25360;-62
2023/12/31 09:10:06;;;;;;;10.00;3.50;;;;;;;-2.38;98.28;141697.41;107000;1263;25939;-64
2023/12/31 09:12:51;;;;;;;8.40;2.80;;;;;;;-2.60;99.23;141643.83;107034;1263;25612;-61
2023/12/31 09:15:37;;;;;;;11.80;4.00;;;;;;;-2.68;100.00;141624.47;107042;1264;25337;-62
2023/12/31 09:18:23;;;;;;;16.60;4.40;;;;;;;-2.64;100.00;141634.16;107032;1263;25458;-64
2023/12/31 09:21:09;;;;;;;9.40;3.60;;;;;;;-2.82;99.96;141591.25;107048;1263;25348;-63
2023/12/31 09:23:55;;;;;;;6.40;2.90;;;;;;;-2.99;100.00;141549.34;107036;1263;25433;-64
2023/12/31 09:26:41;;;;;;;10.20;3.50;;;;;;;-3.11;100.00;141519.59;107056;1263;25365;-65
2023/12/31 09:29:26;;;;;;;10.20;3.50;;;;;;;-3.13;100.00;141514.89;107036;1269;25478;-63
2023/12/31 09:32:12;;;;;;;7.20;3.30;;;;;;;-3.00;100.00;141547.86;107052;1263;25369;-62
2023/12/31 09:34:58;;;;;;;8.90;3.00;;;;;;;-2.77;100.00;141602.16;107010;1263;25353;-62
2023/12/31 09:37:44;;;;;;;12.00;4.10;;;;;;;-2.73;99.71;141611.34;107030;1263;25403;-65
2023/12/31 09:40:30;;;;;;;5.70;2.50;;;;;;;-2.76;99.77;141605.89;107031;1260;25803;-66
2023/12/31 09:43:19;;;;;;;6.90;3.50;;;;;;;-2.70;99.57;141618.77;107173;1263;25481;-67
2023/12/31 09:46:05;;;;;;;8.10;3.20;;;;;;;-2.60;99.11;141644.56;107248;1260;25351;-65
2023/12/31 09:48:52;;;;;;;9.20;3.60;;;;;;;-2.46;98.44;141677.80;107129;1263;22530;-64
2023/12/31 09:51:37;;;;;;;7.90;3.30;;;;;;;-2.47;97.58;141676.81;107210;1261;25359;-63
2023/12/31 09:54:23;;;;;;;7.70;3.30;;;;;;;-2.54;96.31;141659.95;107113;1264;25514;-63
2023/12/31 09:57:12;;;;;;;6.50;2.90;;;;;;;-2.85;96.84;141584.33;107041;1260;25421;-65
2023/12/31 10:00:04;;;;;;;5.30;2.50;;;;;;;-3.11;96.02;141521.34;107134;1263;25369;-64
2023/12/31 10:02:54;;;;;;;9.80;3.00;;;;;;;-3.29;96.32;141476.95;107080;1263;25360;-64
2023/12/31 10:05:42;;;;;;;6.10;2.70;;;;;;;-3.26;97.59;141483.92;107128;1262;24248;-62
2023/12/31 10:08:29;;;;;;;7.50;3.00;;;;;;;-3.17;97.53;141505.72;107095;1260;25421;-64
2023/12/31 10:11:15;;;;;;;10.00;3.20;;;;;;;-3.09;97.80;141526.55;107074;1263;25341;-64
2023/12/31 10:14:01;;;;;;;7.70;3.10;;;;;;;-2.99;97.28;141550.09;107103;1261;25346;-64
2023/12/31 10:16:47;;;;;;;8.10;3.10;;;;;;;-2.97;96.99;141553.30;107034;1266;25341;-64
2023/12/31 10:19:34;;;;;;;7.50;2.70;;;;;;;-2.93;94.24;141564.47;107093;1263;25385;-63
2023/12/31 10:22:19;;;;;;;6.90;2.70;;;;;;;-3.07;91.78;141530.77;107127;1263;25372;-62
2023/12/31 10:25:15;;;;;;;10.40;2.50;;;;;;;-3.33;92.40;141468.05;107056;1263;25415;-64
2023/12/31 10:28:04;;;;;;;7.20;2.70;;;;;;;-3.53;93.92;141418.48;107104;1263;25331;-64
2023/12/31 10:30:50;;;;;;;8.90;3.00;;;;;;;-3.74;93.93;141368.20;107117;1256;25369;-63
2023/12/31 10:33:37;;;;;;;5.90;2.40;;;;;;;-3.89;94.72;141331.78;107094;1263;25368;-65
2023/12/31 10:36:24;;;;;;;6.50;2.60;;;;;;;-3.92;94.33;141325.58;107141;1263;25340;-65
2023/12/31 10:39:10;;;;;;;9.90;2.40;;;;;;;-3.92;94.31;141325.34;107115;1260;25472;-63
2023/12/31 10:42:04;;;;;;;7.00;2.50;;;;;;;-3.97;94.28;141312.22;107095;1263;25398;-61
2023/12/31 10:44:56;;;;;;;6.70;2.60;;;;;;;-3.95;94.88;141317.91;107050;1260;25663;-63
2023/12/31 10:47:45;;;;;;;6.50;2.20;;;;;;;-3.90;94.37;141329.05;107031;1263;25366;-61
2023/12/31 10:50:33;;;;;;;5.70;2.20;;;;;;;-3.86;93.50;141338.47;107075;1263;25491;-65
2023/12/31 10:53:23;;;;;;;7.40;2.80;;;;;;;-3.83;93.47;141345.41;107068;1263;25484;-62
2023/12/31 10:56:12;;;;;;;8.80;2.80;;;;;;;-3.78;94.06;141358.28;107242;1263;25359;-61
2023/12/31 10:58:58;;;;;;;5.60;2.60;;;;;;;-3.59;93.91;141404.88;107201;1253;25408;-63
2023/12/31 11:01:45;;;;;;;6.30;2.60;;;;;;;-3.16;91.89;141509.45;107051;1263;25322;-62
2023/12/31 11:04:32;;;;;;;7.10;2.40;;;;;;;-3.09;90.13;141525.31;107096;1263;25369;-62
2023/12/31 11:07:19;;;;;;;7.20;2.80;;;;;;;-3.17;89.91;141505.98;107083;1261;25343;-62
2023/12/31 11:10:08;;;;;;;5.50;2.30;;;;;;;-3.29;89.97;141477.47;107081;1260;25356;-58
2023/12/31 11:12:53;;;;;;;6.60;2.50;;;;;;;-3.38;89.96;141453.92;107086;1263;25493;-59
2023/12/31 11:15:40;;;;;;;7.30;3.10;;;;;;;-3.38;90.26;141454.66;107272;1263;25529;-67
2023/12/31 11:18:59;;;;;;;9.10;3.10;;;;;;;-3.45;90.83;141438.80;107097;1263;25494;-62
2023/12/31 11:22:06;;;;;;;6.50;2.40;;;;;;;-3.52;91.47;141420.97;107069;1269;25366;-62
2023/12/31 11:24:55;;;;;;;6.80;2.70;;;;;;;-3.46;91.03;141436.83;107083;1263;25477;-62
2023/12/31 11:27:41;;;;;;;14.90;3.00;;;;;;;-3.36;90.68;141459.63;107031;1266;25341;-61
2023/12/31 11:30:53;;;;;;;6.40;3.00;;;;;;;-3.25;89.54;141487.39;107081;1263;25369;-60
2023/12/31 11:33:39;;;;;;;;;;;;;;;-3.04;89.02;141537.20;107113;1263;25379;-61
2023/12/31 11:36:26;;;;;;;7.90;3.40;;;;;;;-2.85;88.11;141584.30;107033;1263;25344;-63
2023/12/31 11:39:16;;;;;;;6.60;3.00;;;;;;;-2.75;86.75;141607.11;107079;1263;25436;-63
2023/12/31 11:42:10;;;;;;;10.20;3.40;;;;;;;-2.57;86.45;141650.27;107156;1273;25341;-62
2023/12/31 11:44:57;;;;;;;7.70;3.30;;;;;;;-2.49;85.08;141671.59;107101;1263;25475;-61
2023/12/31 11:47:45;;;;;;;7.00;2.90;;;;;;;-2.50;83.98;141669.59;107059;1263;25448;-60
2023/12/31 11:50:31;;;;;;;12.30;3.00;;;;;;;-2.48;82.76;141674.34;107043;1263;25416;-63
2023/12/31 11:53:17;;;;;;;8.90;2.90;;;;;;;-2.53;81.88;141662.42;107006;1261;25379;-62
2023/12/31 11:56:03;;;;;;;10.10;3.00;;;;;;;-2.55;82.02;141656.70;107113;1263;25411;-62
2023/12/31 11:58:50;;;;;;;8.70;3.40;;;;;;;-2.47;82.28;141675.80;107062;1263;25511;-62
2023/12/31 12:01:37;;;;;;;10.20;3.10;;;;;;;-2.29;82.07;141719.00;107102;1265;26611;-62
2023/12/31 12:04:23;;;;;;;6.50;2.60;;;;;;;-2.28;79.84;141721.70;107276;1262;25412;-62
2023/12/31 12:07:09;;;;;;;9.40;3.00;;;;;;;-2.35;80.46;141705.09;107126;1266;25490;-65
2023/12/31 12:09:56;;;;;;;7.60;2.70;;;;;;;-2.36;79.36;141702.59;107024;1260;25421;-63
2023/12/31 12:12:42;;;;;;;7.00;2.20;;;;;;;-2.45;79.95;141680.78;107043;1265;25405;-62
2023/12/31 12:15:37;;;;;;;7.20;2.80;;;;;;;-2.37;79.98;141700.36;107041;1263;25354;-62
2023/12/31 12:18:24;;;;;;;5.40;2.20;;;;;;;-2.29;79.45;141720.45;107122;1263;25580;-61
2023/12/31 12:21:10;;;;;;;6.20;2.40;;;;;;;-2.26;79.45;141727.16;107036;1269;25369;-63
2023/12/31 12:23:55;;;;;;;6.40;2.50;;;;;;;-2.09;79.37;141766.88;107069;1263;25350;-61
2023/12/31 12:26:42;;;;;;;7.80;2.60;;;;;;;-1.89;77.64;141816.25;107040;1263;25491;-62
2023/12/31 12:29:28;;;;;;;5.30;2.30;;;;;;;-1.88;77.42;141817.22;107050;1263;25490;-62
2023/12/31 12:32:20;;;;;;;12.20;2.90;;;;;;;-1.82;77.01;141832.59;107084;1262;25490;-61
2023/12/31 12:35:08;;;;;;;5.60;2.70;;;;;;;-1.74;75.75;141851.72;107072;1263;25460;-62
2023/12/31 12:37:53;;;;;;;6.80;2.60;;;;;;;-1.72;73.32;141857.17;107026;1273;25369;-63